Time;durP1;ratioP1;P1;durP2;ratioP2;P2;SDS_P1;SDS_P2;PMS_P1;PMS_P2;Temp;Humidity;BMP_temperature;BMP_pressure;BME280_temperature;BME280_humidity;BME280_pressure;Samples;Min_cycle;Max_cycle;Signal;HPM_P1;HPM_P2
2022/07/30 00:01:33;;;;;;;9.05;4.90;;;;;;;17.24;78.86;101742.81;5050187;28;20036;-70
2022/07/30 00:03:59;;;;;;;10.80;5.47;;;;;;;17.13;79.71;101729.16;5051113;28;20037;-70
2022/07/30 00:06:24;;;;;;;8.93;5.20;;;;;;;17.15;80.10;101732.63;5050109;28;20021;-70
2022/07/30 00:08:49;;;;;;;10.38;5.30;;;;;;;17.13;80.09;101733.59;5047767;28;20076;-70
2022/07/30 00:11:14;;;;;;;13.48;6.47;;;;;;;17.11;81.49;101730.16;5049937;28;20078;-70
2022/07/30 00:13:40;;;;;;;11.93;6.50;;;;;;;17.12;81.23;101731.88;5049744;28;20021;-70
2022/07/30 00:16:06;;;;;;;13.35;6.22;;;;;;;17.07;81.92;101735.53;5049060;28;20033;-70
2022/07/30 00:18:31;;;;;;;7.20;5.65;;;;;;;17.01;82.06;101730.50;5047229;28;20044;-70
2022/07/30 00:20:57;;;;;;;12.05;6.68;;;;;;;16.99;83.16;101720.94;5046518;28;20465;-70
2022/07/30 00:23:22;;;;;;;12.73;6.40;;;;;;;16.93;82.89;101721.13;5051702;28;20488;-70
2022/07/30 00:25:47;;;;;;;13.02;6.57;;;;;;;16.88;83.42;101726.59;5053900;28;20036;-70
2022/07/30 00:28:13;;;;;;;9.98;6.18;;;;;;;16.91;83.17;101725.63;5052555;28;20491;-70
2022/07/30 00:30:39;;;;;;;11.93;7.05;;;;;;;16.78;84.09;101723.41;5053372;28;20029;-70
2022/07/30 00:33:05;;;;;;;11.02;7.07;;;;;;;16.68;84.79;101732.53;5052300;28;20029;-70
2022/07/30 00:35:30;;;;;;;13.15;7.22;;;;;;;16.61;85.25;101731.88;5052336;28;20423;-70
2022/07/30 00:37:55;;;;;;;17.98;7.43;;;;;;;16.68;84.98;101740.44;5053779;28;20021;-70
2022/07/30 00:40:21;;;;;;;11.55;6.60;;;;;;;16.60;85.48;101738.03;5052747;28;20035;-70
2022/07/30 00:42:47;;;;;;;14.55;6.90;;;;;;;16.59;85.91;101736.31;5052323;28;20037;-70
2022/07/30 00:45:14;;;;;;;16.73;7.10;;;;;;;16.63;85.68;101737.94;5054119;28;20071;-70
2022/07/30 00:47:40;;;;;;;10.95;7.25;;;;;;;16.60;85.85;101732.78;5053544;28;20037;-70
2022/07/30 00:50:08;;;;;;;10.02;7.07;;;;;;;16.54;86.10;101738.25;5051023;28;20055;-70
2022/07/30 00:52:35;;;;;;;10.18;7.53;;;;;;;16.45;86.96;101732.44;5050372;28;20393;-70
2022/07/30 00:55:00;;;;;;;13.13;7.72;;;;;;;16.44;87.36;101735.97;5053786;28;20476;-70
2022/07/30 00:57:26;;;;;;;13.10;8.25;;;;;;;16.44;87.06;101734.19;5053003;28;20059;-70
2022/07/30 00:59:52;;;;;;;13.98;7.90;;;;;;;16.44;87.94;101736.84;5051056;28;20071;-70
2022/07/30 01:02:17;;;;;;;12.20;7.78;;;;;;;16.46;87.51;101729.75;5053852;28;20021;-70
2022/07/30 01:04:43;;;;;;;12.63;8.35;;;;;;;16.44;88.01;101728.94;5052851;28;20415;-70
2022/07/30 01:07:09;;;;;;;12.23;7.78;;;;;;;16.45;88.07;101725.41;5051589;28;20059;-70
2022/07/30 01:09:34;;;;;;;13.52;8.63;;;;;;;16.41;88.82;101723.78;5050927;28;20041;-70
2022/07/30 01:12:01;;;;;;;15.15;9.63;;;;;;;16.38;88.58;101715.97;5052806;28;20017;-70
2022/07/30 01:14:27;;;;;;;15.93;9.73;;;;;;;16.35;88.82;101716.13;5053019;28;20032;-70
2022/07/30 01:16:53;;;;;;;12.18;9.48;;;;;;;16.25;88.84;101720.81;5052435;28;20029;-70
2022/07/30 01:22:24;;;;;;;16.30;10.23;;;;;;;16.06;89.74;101715.31;5050150;28;20043;-70
2022/07/30 01:25:14;;;;;;;17.38;9.55;;;;;;;16.04;90.39;101725.00;5052355;28;20036;-70
2022/07/30 01:27:49;;;;;;;14.57;9.55;;;;;;;16.07;90.33;101726.69;5050004;28;20119;-70
2022/07/30 01:30:19;;;;;;;15.05;9.40;;;;;;;16.05;90.78;101729.34;5050415;28;20036;-70
2022/07/30 01:32:45;;;;;;;17.30;11.07;;;;;;;16.01;91.56;101725.09;5052156;28;20029;-70
2022/07/30 01:35:13;;;;;;;15.60;10.43;;;;;;;15.96;91.76;101728.78;5052581;28;20032;-70
2022/07/30 01:37:41;;;;;;;12.75;10.52;;;;;;;15.91;91.62;101729.78;5052826;28;20033;-70
2022/07/30 01:40:07;;;;;;;15.90;10.98;;;;;;;15.85;91.73;101726.50;5050428;28;20037;-70
2022/07/30 01:42:35;;;;;;;17.60;10.98;;;;;;;15.85;92.05;101727.34;5040242;28;20057;-70
2022/07/30 01:45:01;;;;;;;16.08;11.45;;;;;;;15.80;92.40;101728.41;5051063;28;20048;-70
2022/07/30 01:47:29;;;;;;;18.00;11.82;;;;;;;15.83;92.31;101729.19;5051302;28;20082;-70
2022/07/30 01:49:57;;;;;;;17.05;11.48;;;;;;;15.83;92.00;101723.06;5050297;28;20476;-70
2022/07/30 01:52:25;;;;;;;18.05;11.60;;;;;;;15.85;92.00;101723.88;5051389;28;20025;-70
2022/07/30 01:54:53;;;;;;;16.95;11.85;;;;;;;15.78;92.63;101731.09;5052389;28;20029;-70
2022/07/30 01:57:19;;;;;;;19.10;13.70;;;;;;;15.75;93.00;101727.69;5052745;28;20032;-70
2022/07/30 01:59:49;;;;;;;18.80;13.40;;;;;;;15.77;92.71;101731.16;5049460;28;20162;-70
2022/07/30 02:02:14;;;;;;;18.05;12.82;;;;;;;15.71;93.16;101726.06;5052800;28;20021;-70
2022/07/30 02:04:40;;;;;;;19.02;13.18;;;;;;;15.67;93.50;101730.56;5039209;28;20029;-70
2022/07/30 02:07:13;;;;;;;17.98;13.20;;;;;;;15.63;93.41;101731.50;5050982;28;20025;-70
2022/07/30 02:10:08;;;;;;;;;;;;;;;15.65;88.91;101721.81;5052637;28;20037;-70
2022/07/30 02:12:38;;;;;;;20.30;12.75;;;;;;;15.56;93.41;101730.84;5046824;28;20379;-70
2022/07/30 02:15:28;;;;;;;17.67;13.23;;;;;;;15.55;93.66;101737.00;5049311;28;20396;-70
2022/07/30 02:18:06;;;;;;;18.23;13.60;;;;;;;15.56;93.77;101733.47;5051930;28;20032;-70
2022/07/30 02:20:34;;;;;;;17.55;13.68;;;;;;;15.52;93.93;101734.47;5053828;28;20061;-70
2022/07/30 02:23:06;;;;;;;20.58;14.55;;;;;;;15.44;94.57;101733.84;5062154;28;20029;-70
2022/07/30 02:25:34;;;;;;;21.33;14.10;;;;;;;15.42;94.82;101739.13;5045370;28;20456;-70
2022/07/30 02:28:06;;;;;;;18.92;13.95;;;;;;;15.41;94.66;101729.53;5062604;28;20472;-70
2022/07/30 02:30:35;;;;;;;20.77;13.57;;;;;;;15.41;94.49;101726.91;5067128;28;20036;-70
2022/07/30 02:33:09;;;;;;;23.00;15.75;;;;;;;15.32;95.27;101731.56;5057101;28;20110;-70
2022/07/30 02:35:36;;;;;;;22.17;15.10;;;;;;;15.30;95.49;101728.13;5061559;28;20020;-70
2022/07/30 02:38:02;;;;;;;21.90;15.80;;;;;;;15.23;95.86;101737.94;5066260;28;20483;-70
2022/07/30 02:40:28;;;;;;;20.42;16.33;;;;;;;15.23;95.52;101737.94;5065877;28;20066;-70
2022/07/30 02:42:55;;;;;;;23.10;15.73;;;;;;;15.21;95.96;101735.38;5060561;28;20543;-70
2022/07/30 02:45:22;;;;;;;23.27;15.40;;;;;;;15.21;96.18;101740.63;5059146;28;20025;-70
2022/07/30 02:47:56;;;;;;;22.70;17.05;;;;;;;15.17;96.79;101746.00;5070597;28;20012;-70
2022/07/30 02:50:23;;;;;;;26.15;16.88;;;;;;;15.14;96.65;101743.44;5055079;28;20032;-70
2022/07/30 02:52:52;;;;;;;23.25;17.50;;;;;;;15.03;97.15;101735.88;5063644;28;20020;-70
2022/07/30 02:55:17;;;;;;;23.27;17.02;;;;;;;15.06;96.87;101743.69;5070796;28;20468;-70
2022/07/30 02:57:44;;;;;;;22.27;17.38;;;;;;;15.05;96.79;101743.72;5070074;28;20024;-70
2022/07/30 03:00:11;;;;;;;22.15;16.20;;;;;;;14.99;96.65;101748.25;5063485;28;20032;-70
2022/07/30 03:02:38;;;;;;;23.13;17.05;;;;;;;14.95;97.07;101743.13;5050883;28;20052;-70
2022/07/30 03:05:05;;;;;;;24.98;16.90;;;;;;;14.92;97.08;101754.56;5069072;28;20380;-70
2022/07/30 03:07:31;;;;;;;24.27;17.55;;;;;;;14.87;97.57;101752.97;5071420;28;20116;-70
2022/07/30 03:09:58;;;;;;;20.00;16.67;;;;;;;14.84;97.75;101748.66;5065826;28;20029;-70
2022/07/30 03:12:27;;;;;;;21.55;16.45;;;;;;;14.86;97.51;101752.09;5051333;28;20160;-70
2022/07/30 03:14:53;;;;;;;23.63;17.15;;;;;;;14.87;97.74;101756.44;5047270;28;20081;-70
2022/07/30 03:17:20;;;;;;;23.75;18.15;;;;;;;14.82;98.39;101754.88;5070621;28;20029;-70
2022/07/30 03:19:48;;;;;;;22.38;17.02;;;;;;;14.72;98.28;101751.63;5071166;28;20017;-70
2022/07/30 03:22:16;;;;;;;18.75;16.75;;;;;;;14.72;98.56;101749.00;5062789;28;20025;-70
2022/07/30 03:24:43;;;;;;;22.98;17.55;;;;;;;14.75;98.48;101751.53;5052993;28;20087;-70
2022/07/30 03:27:08;;;;;;;28.00;17.73;;;;;;;14.72;98.46;101747.22;5071060;28;20037;-70
2022/07/30 03:29:37;;;;;;;25.45;18.02;;;;;;;14.64;98.66;101743.06;5071204;28;20082;-70
2022/07/30 03:32:04;;;;;;;23.48;18.13;;;;;;;14.57;98.81;101744.13;5065130;28;20423;-70
2022/07/30 03:34:32;;;;;;;28.10;18.40;;;;;;;14.55;99.36;101745.91;5056253;28;20025;-70
2022/07/30 03:36:58;;;;;;;23.65;17.20;;;;;;;14.53;98.81;101748.59;5061429;28;20533;-70
2022/07/30 03:39:23;;;;;;;21.85;17.27;;;;;;;14.48;98.92;101746.03;5070343;28;20032;-70
2022/07/30 03:41:52;;;;;;;22.98;18.20;;;;;;;14.54;99.10;101752.09;5052481;28;20029;-70
2022/07/30 03:44:18;;;;;;;22.48;17.55;;;;;;;14.48;98.52;101748.66;5057907;28;20472;-70
2022/07/30 03:46:44;;;;;;;23.33;16.95;;;;;;;14.49;98.63;101752.19;5070124;28;20075;-70
2022/07/30 03:49:10;;;;;;;23.35;18.30;;;;;;;14.42;98.86;101756.72;5071018;28;20383;-70
2022/07/30 03:51:35;;;;;;;26.63;17.55;;;;;;;14.37;98.63;101748.09;5054534;28;20079;-70
2022/07/30 03:54:02;;;;;;;20.58;16.13;;;;;;;14.36;98.63;101761.25;5041944;28;20397;-70
2022/07/30 03:56:27;;;;;;;22.48;16.30;;;;;;;14.32;98.99;101770.06;5062122;28;20414;-70
2022/07/30 03:58:53;;;;;;;21.55;16.75;;;;;;;14.28;98.72;101772.78;5071901;28;20047;-70
2022/07/30 04:01:18;;;;;;;26.10;17.08;;;;;;;14.25;99.07;101769.34;5060771;28;20036;-70
2022/07/30 04:03:43;;;;;;;23.42;17.52;;;;;;;14.21;99.16;101771.19;5047459;28;20096;-70
2022/07/30 04:06:09;;;;;;;22.00;17.00;;;;;;;14.20;98.54;101774.72;5074003;28;20028;-70
2022/07/30 04:08:34;;;;;;;25.08;17.92;;;;;;;14.23;98.73;101777.28;5074449;28;20045;-70
2022/07/30 04:10:59;;;;;;;19.90;16.50;;;;;;;14.24;99.09;101775.50;5072337;28;20033;-70
2022/07/30 04:13:24;;;;;;;22.17;16.77;;;;;;;14.23;98.92;101777.28;5061217;28;20122;-70
2022/07/30 04:15:53;;;;;;;21.77;16.92;;;;;;;14.23;98.74;101785.16;5071283;28;20035;-70
2022/07/30 04:18:19;;;;;;;21.73;16.45;;;;;;;14.19;99.16;101791.38;5074554;28;20024;-70
2022/07/30 04:20:48;;;;;;;22.25;16.45;;;;;;;14.16;99.11;101786.19;5065904;28;20035;-70
2022/07/30 04:23:14;;;;;;;27.65;17.20;;;;;;;14.17;99.15;101787.91;5063420;28;20024;-70
2022/07/30 04:25:41;;;;;;;23.83;16.98;;;;;;;14.15;99.43;101797.56;5057833;28;20079;-70
2022/07/30 04:28:09;;;;;;;20.05;16.88;;;;;;;14.15;99.46;101792.31;5069530;28;20025;-70
2022/07/30 04:30:34;;;;;;;20.30;15.75;;;;;;;14.17;99.14;101797.53;5068220;28;20029;-70
2022/07/30 04:33:01;;;;;;;20.48;15.75;;;;;;;14.14;98.98;101790.59;5053192;28;20048;-70
2022/07/30 04:35:32;;;;;;;21.25;16.08;;;;;;;14.16;99.29;101791.44;5073485;28;20515;-70
2022/07/30 04:37:57;;;;;;;18.70;15.70;;;;;;;14.08;98.93;101790.75;5073974;28;20025;-70
2022/07/30 04:40:23;;;;;;;20.35;16.02;;;;;;;14.12;98.88;101799.41;5073926;28;20375;-70
2022/07/30 04:42:49;;;;;;;22.33;15.85;;;;;;;14.20;99.10;101798.34;5063087;28;20021;-70
2022/07/30 04:45:14;;;;;;;21.75;16.13;;;;;;;14.23;98.97;101813.13;5057406;28;20033;-70
2022/07/30 04:47:39;;;;;;;20.40;15.07;;;;;;;14.26;98.96;101806.06;5062529;28;20024;-70
2022/07/30 04:50:08;;;;;;;21.25;15.50;;;;;;;14.31;98.80;101811.19;5073608;28;20049;-70
2022/07/30 04:52:35;;;;;;;19.73;15.88;;;;;;;14.33;99.12;101817.28;5064631;28;20387;-70
2022/07/30 04:55:04;;;;;;;18.98;14.63;;;;;;;14.34;99.18;101813.75;5056154;28;20128;-70
2022/07/30 04:57:30;;;;;;;18.42;15.63;;;;;;;14.33;99.28;101808.53;5073404;28;20042;-69
2022/07/30 04:59:56;;;;;;;22.38;15.07;;;;;;;14.40;99.41;101821.47;5073725;28;20420;-70
2022/07/30 05:02:24;;;;;;;20.85;15.85;;;;;;;14.43;99.39;101829.25;5067999;28;20104;-70
2022/07/30 05:04:50;;;;;;;19.92;15.80;;;;;;;14.44;99.26;101825.72;5061290;28;20100;-70
2022/07/30 05:07:17;;;;;;;20.05;15.35;;;;;;;14.49;98.89;101829.13;5067258;28;20025;-70
2022/07/30 05:09:43;;;;;;;19.92;15.13;;;;;;;14.50;99.07;101828.25;5071462;28;20080;-70
2022/07/30 05:12:08;;;;;;;20.17;15.32;;;;;;;14.53;98.93;101827.31;5068260;28;20060;-70
2022/07/30 05:14:34;;;;;;;20.52;15.77;;;;;;;14.56;99.15;101826.38;5069747;28;20073;-70
2022/07/30 05:16:59;;;;;;;20.83;15.68;;;;;;;14.58;99.13;101821.94;5059630;28;20448;-70
2022/07/30 05:19:24;;;;;;;20.20;15.20;;;;;;;14.66;98.63;101818.25;5071604;28;20394;-70
2022/07/30 05:21:50;;;;;;;25.80;16.08;;;;;;;14.72;98.73;101822.47;5069064;28;20063;-70
2022/07/30 05:24:16;;;;;;;18.70;14.52;;;;;;;14.73;98.45;101818.94;5040366;28;20080;-70
2022/07/30 05:26:41;;;;;;;21.83;15.57;;;;;;;14.79;98.69;101820.56;5054923;28;20107;-70
2022/07/30 05:29:06;;;;;;;22.30;15.13;;;;;;;14.86;98.49;101824.75;5073042;28;20036;-70
2022/07/30 05:31:32;;;;;;;19.27;15.15;;;;;;;14.89;98.84;101824.69;5070298;28;20025;-70
2022/07/30 05:33:57;;;;;;;19.48;15.75;;;;;;;14.95;98.15;101828.00;5048232;28;20480;-70
2022/07/30 05:36:23;;;;;;;20.90;14.65;;;;;;;14.99;98.80;101820.91;5045386;28;20119;-70
2022/07/30 05:38:48;;;;;;;20.23;15.27;;;;;;;15.02;98.81;101830.47;5072276;28;20464;-70
2022/07/30 05:41:14;;;;;;;20.80;16.13;;;;;;;15.12;98.65;101831.94;5073100;28;20024;-69
2022/07/30 05:43:40;;;;;;;18.85;15.13;;;;;;;15.18;98.41;101831.78;5069579;28;20037;-70
2022/07/30 05:46:05;;;;;;;21.55;16.50;;;;;;;15.20;98.52;101827.34;5061442;28;20024;-70
2022/07/30 05:48:34;;;;;;;18.58;15.05;;;;;;;15.34;97.76;101834.88;5068239;28;20032;-69
2022/07/30 05:50:59;;;;;;;21.65;15.82;;;;;;;15.41;97.76;101833.78;5071994;28;20440;-70
2022/07/30 05:53:24;;;;;;;19.73;16.10;;;;;;;15.40;97.44;101832.03;5069853;28;20629;-70
2022/07/30 05:55:50;;;;;;;18.40;14.98;;;;;;;15.49;97.10;101826.53;5055614;28;20028;-70
2022/07/30 05:58:15;;;;;;;20.77;15.77;;;;;;;15.51;97.28;101837.88;5068689;28;20063;-70
2022/07/30 06:00:40;;;;;;;19.65;15.93;;;;;;;15.59;96.92;101838.50;5070171;28;20059;-70
2022/07/30 06:03:06;;;;;;;26.27;16.23;;;;;;;15.62;97.79;101834.94;5072344;28;20052;-70
2022/07/30 06:05:31;;;;;;;22.65;15.38;;;;;;;15.70;97.18;101845.28;5052370;28;20066;-70
2022/07/30 06:07:56;;;;;;;21.98;15.32;;;;;;;15.78;96.70;101844.13;5067731;28;20044;-70
2022/07/30 06:10:22;;;;;;;21.77;14.10;;;;;;;15.86;96.35;101841.31;5072467;28;20032;-70
2022/07/30 06:12:47;;;;;;;19.67;14.38;;;;;;;15.93;96.89;101844.59;5059987;28;20032;-70
2022/07/30 06:15:12;;;;;;;16.50;13.20;;;;;;;16.01;95.31;101850.47;5059206;28;20116;-70
2022/07/30 06:17:44;;;;;;;15.40;13.07;;;;;;;16.08;95.49;101847.59;5051902;28;20028;-70
2022/07/30 06:20:11;;;;;;;17.35;12.52;;;;;;;16.16;95.83;101852.66;5061572;28;20032;-70
2022/07/30 06:22:37;;;;;;;16.50;11.25;;;;;;;16.25;94.90;101844.50;5068122;28;20029;-70
2022/07/30 06:25:02;;;;;;;14.90;10.00;;;;;;;16.31;93.56;101853.94;5057042;28;20047;-70
2022/07/30 06:27:28;;;;;;;17.13;10.60;;;;;;;16.33;93.53;101838.97;5066084;28;20473;-70
2022/07/30 06:29:53;;;;;;;15.90;9.68;;;;;;;16.44;93.09;101851.78;5068464;28;20074;-70
2022/07/30 06:32:18;;;;;;;14.40;9.25;;;;;;;16.48;91.98;101846.38;5068423;28;20503;-70
2022/07/30 06:34:44;;;;;;;16.02;10.48;;;;;;;16.53;92.38;101854.97;5060583;28;20069;-70
2022/07/30 06:37:09;;;;;;;14.02;10.10;;;;;;;16.61;92.61;101846.81;5069988;28;20037;-70
2022/07/30 06:39:35;;;;;;;18.38;11.38;;;;;;;16.64;92.22;101854.63;5058261;28;20048;-70
2022/07/30 06:42:00;;;;;;;12.75;9.77;;;;;;;16.71;92.26;101858.81;5054815;28;20379;-70
2022/07/30 06:44:25;;;;;;;13.73;8.95;;;;;;;16.77;90.37;101861.25;5058635;28;20495;-70
2022/07/30 06:46:51;;;;;;;15.40;9.27;;;;;;;16.86;90.05;101860.09;5067631;28;20035;-70
2022/07/30 06:49:16;;;;;;;10.90;8.48;;;;;;;16.94;88.96;101855.44;5070811;28;20032;-70
2022/07/30 06:51:41;;;;;;;11.77;7.95;;;;;;;17.00;88.63;101862.25;5071503;28;20031;-70
2022/07/30 06:54:07;;;;;;;13.18;8.10;;;;;;;17.03;87.77;101848.97;5063160;28;20303;-70
2022/07/30 06:56:32;;;;;;;14.68;7.80;;;;;;;17.05;87.49;101853.28;5063211;28;20033;-70
2022/07/30 06:58:57;;;;;;;11.90;7.53;;;;;;;17.09;87.66;101854.03;5062808;28;20472;-70
2022/07/30 07:01:23;;;;;;;10.60;7.25;;;;;;;17.18;88.73;101866.03;5070898;28;20052;-70
2022/07/30 07:03:49;;;;;;;11.55;8.15;;;;;;;17.21;86.56;101864.16;5061087;28;20053;-70
2022/07/30 07:06:14;;;;;;;13.70;8.50;;;;;;;17.40;85.09;101866.16;5042195;28;20380;-70
2022/07/30 07:08:39;;;;;;;10.10;6.90;;;;;;;17.66;85.76;101870.47;5064388;28;20103;-70
2022/07/30 07:11:05;;;;;;;12.43;7.07;;;;;;;17.77;84.17;101869.19;5059454;28;20040;-70
2022/07/30 07:13:30;;;;;;;9.45;6.35;;;;;;;18.02;82.70;101870.91;5071724;28;20506;-70
2022/07/30 07:15:57;;;;;;;9.88;6.22;;;;;;;18.37;81.29;101868.66;5070152;28;20380;-70
2022/07/30 07:18:22;;;;;;;12.05;5.97;;;;;;;18.65;78.46;101871.06;5071172;28;20060;-70
2022/07/30 07:20:47;;;;;;;12.75;6.10;;;;;;;18.87;77.40;101868.44;5062360;28;20053;-70
2022/07/30 07:23:13;;;;;;;11.00;6.05;;;;;;;19.07;76.59;101864.94;5044428;28;20358;-71
2022/07/30 07:25:39;;;;;;;10.68;5.63;;;;;;;19.15;76.51;101852.22;5054347;28;20068;-70
2022/07/30 07:28:05;;;;;;;15.63;5.60;;;;;;;19.15;75.70;101862.81;5062714;28;20025;-70
2022/07/30 07:30:30;;;;;;;11.32;5.50;;;;;;;19.16;75.60;101860.13;5070295;28;20442;-70
2022/07/30 07:32:55;;;;;;;9.95;4.85;;;;;;;19.31;73.79;101855.06;5059380;28;20033;-70
2022/07/30 07:35:20;;;;;;;6.95;4.28;;;;;;;19.40;72.99;101866.09;5070935;28;20027;-70
2022/07/30 07:37:46;;;;;;;9.00;4.70;;;;;;;19.46;73.21;101866.78;5051263;28;20495;-70
2022/07/30 07:40:11;;;;;;;7.18;3.63;;;;;;;19.58;74.01;101871.50;5068267;28;20110;-70
2022/07/30 07:42:37;;;;;;;6.38;3.78;;;;;;;19.41;70.58;101867.81;5064050;28;20035;-70
2022/07/30 07:45:02;;;;;;;8.68;4.20;;;;;;;19.25;69.59;101865.91;5070179;28;20032;-70
2022/07/30 07:47:28;;;;;;;7.65;4.03;;;;;;;19.03;71.37;101874.78;5061492;28;20125;-70
2022/07/30 07:49:56;;;;;;;8.23;3.50;;;;;;;19.07;70.89;101871.06;5058756;28;20086;-70
2022/07/30 07:52:21;;;;;;;7.53;3.90;;;;;;;19.08;70.10;101861.38;5061859;28;20104;-71
2022/07/30 07:54:46;;;;;;;7.82;4.20;;;;;;;19.16;70.15;101869.81;5062396;28;20103;-70
2022/07/30 07:57:11;;;;;;;4.88;3.78;;;;;;;19.21;71.34;101867.84;5059551;28;20495;-70
2022/07/30 07:59:37;;;;;;;8.25;3.28;;;;;;;19.16;70.42;101870.69;5070175;28;20029;-70
2022/07/30 08:02:02;;;;;;;7.18;4.10;;;;;;;19.18;71.45;101868.81;5061408;28;20100;-70
2022/07/30 08:04:28;;;;;;;5.13;3.45;;;;;;;19.20;71.62;101867.91;5045177;28;20033;-70
2022/07/30 08:06:53;;;;;;;6.65;3.63;;;;;;;19.17;69.69;101868.91;5056507;28;20021;-70
2022/07/30 08:09:19;;;;;;;8.10;3.30;;;;;;;19.13;69.28;101865.53;5057535;28;20048;-70
2022/07/30 08:11:44;;;;;;;8.85;3.58;;;;;;;19.12;70.02;101862.94;5069770;28;20060;-70
2022/07/30 08:14:10;;;;;;;10.15;3.38;;;;;;;19.12;71.48;101866.44;5063712;28;20548;-70
2022/07/30 08:16:35;;;;;;;9.65;3.97;;;;;;;19.21;69.41;101870.47;5051363;28;20369;-70
2022/07/30 08:19:00;;;;;;;8.75;3.42;;;;;;;19.28;68.67;101866.63;5062172;28;20143;-70
2022/07/30 08:21:25;;;;;;;6.70;3.85;;;;;;;19.37;70.93;101863.59;5057404;28;20380;-70
2022/07/30 08:23:51;;;;;;;8.23;3.50;;;;;;;19.48;71.08;101862.25;5058999;28;20067;-70
2022/07/30 08:26:16;;;;;;;8.32;3.50;;;;;;;19.53;67.05;101863.78;5064674;28;20090;-70
2022/07/30 08:28:42;;;;;;;7.38;3.40;;;;;;;19.52;67.33;101866.47;5060941;28;20025;-70
2022/07/30 08:31:07;;;;;;;7.35;3.25;;;;;;;19.57;68.75;101862.69;5063160;28;20108;-73
2022/07/30 08:33:33;;;;;;;4.63;3.28;;;;;;;19.59;66.77;101857.38;5063294;28;20043;-73
2022/07/30 08:35:58;;;;;;;5.95;3.00;;;;;;;19.51;64.99;101864.75;5056458;28;20025;-72
2022/07/30 08:38:23;;;;;;;7.38;3.17;;;;;;;19.46;66.62;101864.13;5053101;28;20036;-73
2022/07/30 08:40:49;;;;;;;6.70;2.95;;;;;;;19.57;66.89;101865.34;5047036;28;20071;-73
2022/07/30 08:43:15;;;;;;;10.80;3.30;;;;;;;19.63;64.81;101862.47;5045477;28;20029;-73
2022/07/30 08:45:41;;;;;;;5.93;3.13;;;;;;;19.76;65.96;101869.84;5059799;28;20067;-72
2022/07/30 08:48:09;;;;;;;5.78;3.85;;;;;;;19.86;64.95;101857.91;5057199;28;20515;-72
2022/07/30 08:50:35;;;;;;;6.70;3.50;;;;;;;19.96;64.07;101861.00;5061178;28;20537;-73
2022/07/30 08:53:01;;;;;;;5.95;3.35;;;;;;;19.99;64.28;101860.84;5065103;28;20032;-73
2022/07/30 08:55:27;;;;;;;7.45;3.17;;;;;;;20.08;66.11;101866.56;5067798;28;20410;-73
2022/07/30 08:57:52;;;;;;;6.57;2.83;;;;;;;20.18;62.47;101863.50;5065343;28;20457;-73
2022/07/30 09:00:18;;;;;;;4.10;3.10;;;;;;;20.28;62.98;101864.78;5068492;28;20032;-73
2022/07/30 09:02:44;;;;;;;4.13;2.90;;;;;;;20.39;61.14;101848.34;5040265;28;20017;-73
2022/07/30 09:05:10;;;;;;;6.75;3.10;;;;;;;20.46;60.63;101850.63;5059112;28;20021;-73
2022/07/30 09:07:36;;;;;;;5.28;2.95;;;;;;;20.55;62.71;101854.66;5060251;28;20017;-72
2022/07/30 09:10:04;;;;;;;7.28;3.58;;;;;;;20.63;61.94;101854.25;5056799;28;20037;-73
2022/07/30 09:12:35;;;;;;;5.05;3.67;;;;;;;20.69;60.81;101857.47;5063183;28;20107;-73
2022/07/30 09:15:03;;;;;;;5.78;3.67;;;;;;;20.73;59.95;101866.09;5052985;28;20345;-73
2022/07/30 09:17:44;;;;;;;5.97;3.38;;;;;;;20.75;60.45;101867.75;5060652;28;20025;-73
2022/07/30 09:20:10;;;;;;;3.90;2.88;;;;;;;20.84;60.13;101865.59;5059353;28;20077;-73
2022/07/30 09:22:50;;;;;;;7.80;3.15;;;;;;;20.97;58.95;101867.53;5072237;28;20029;-73
2022/07/30 09:25:32;;;;;;;7.30;2.80;;;;;;;21.05;57.24;101880.38;5056722;28;20052;-74
2022/07/30 09:27:57;;;;;;;6.57;2.85;;;;;;;21.12;58.21;101879.13;5055490;28;20505;-73
2022/07/30 09:30:23;;;;;;;5.53;2.80;;;;;;;21.26;57.44;101876.66;5055004;28;20037;-73
2022/07/30 09:32:54;;;;;;;5.55;2.80;;;;;;;21.31;56.23;101891.47;5073080;28;20028;-73
2022/07/30 09:35:20;;;;;;;6.50;2.72;;;;;;;21.37;56.00;101888.53;5073014;28;20025;-73
2022/07/30 09:37:46;;;;;;;3.92;2.88;;;;;;;21.44;54.78;101882.81;5072174;28;20074;-73
2022/07/30 09:40:12;;;;;;;6.28;2.35;;;;;;;21.57;55.54;101883.00;5050450;28;20017;-73
2022/07/30 09:42:38;;;;;;;6.43;3.42;;;;;;;21.69;55.07;101874.41;5060031;28;20480;-73
2022/07/30 09:45:21;;;;;;;7.10;3.10;;;;;;;21.85;56.48;101876.25;5067462;28;20021;-73
2022/07/30 09:47:48;;;;;;;;;;;;;;;22.03;57.80;101872.56;5073322;28;20107;-73
2022/07/30 09:50:23;;;;;;;3.33;2.30;;;;;;;22.22;55.82;101867.13;5043633;28;19913;-73
2022/07/30 09:52:49;;;;;;;7.15;2.97;;;;;;;22.23;52.29;101871.47;5048029;28;20037;-73
2022/07/30 09:55:29;;;;;;;6.40;2.47;;;;;;;22.28;54.16;101868.56;5051163;28;20013;-73
2022/07/30 09:58:00;;;;;;;4.97;2.72;;;;;;;22.29;53.22;101860.50;5049401;28;20021;-73
2022/07/30 10:00:28;;;;;;;3.05;2.25;;;;;;;22.29;51.67;101865.81;5050746;28;20025;-73
2022/07/30 10:02:54;;;;;;;5.70;2.80;;;;;;;22.31;51.98;101863.94;5047077;28;20025;-73
2022/07/30 10:05:20;;;;;;;4.82;2.72;;;;;;;22.37;53.49;101847.66;5049890;28;20043;-73
2022/07/30 10:07:51;;;;;;;5.80;2.90;;;;;;;22.49;51.16;101851.41;5049869;28;20370;-72
2022/07/30 10:10:18;;;;;;;8.90;3.20;;;;;;;22.58;51.05;101855.34;5047052;28;20491;-73
2022/07/30 10:12:45;;;;;;;6.60;2.75;;;;;;;22.65;51.41;101854.88;5049094;28;20021;-73
2022/07/30 10:15:11;;;;;;;6.57;2.70;;;;;;;22.72;49.47;101849.22;5049525;28;20164;-73
2022/07/30 10:17:37;;;;;;;4.18;2.30;;;;;;;22.80;49.96;101853.13;5050795;28;20428;-73
2022/07/30 10:20:07;;;;;;;3.95;2.53;;;;;;;22.86;50.79;101859.91;5051639;28;20498;-73
2022/07/30 10:22:34;;;;;;;5.20;2.25;;;;;;;22.95;51.88;101858.50;5051548;28;20037;-73
2022/07/30 10:25:01;;;;;;;6.80;2.33;;;;;;;23.10;52.19;101850.47;5052507;28;20025;-72
2022/07/30 10:27:27;;;;;;;4.03;2.53;;;;;;;23.32;50.18;101846.53;5061863;28;20024;-73
2022/07/30 10:29:53;;;;;;;3.35;2.22;;;;;;;23.45;49.29;101852.81;5066708;28;20112;-73
2022/07/30 10:32:19;;;;;;;3.95;2.00;;;;;;;23.54;48.17;101846.03;5049495;28;20041;-74
2022/07/30 10:34:45;;;;;;;4.18;2.10;;;;;;;23.58;47.09;101851.09;5065003;28;20024;-70
2022/07/30 10:37:15;;;;;;;4.57;2.40;;;;;;;23.63;49.99;101855.25;5051426;28;20370;-71
2022/07/30 10:39:53;;;;;;;3.83;2.17;;;;;;;23.86;48.43;101846.72;5047586;28;20041;-70
2022/07/30 10:43:05;;;;;;;4.30;2.42;;;;;;;24.05;47.32;101851.72;5048749;28;20028;-71
2022/07/30 10:45:37;;;;;;;2.65;1.95;;;;;;;24.18;47.10;101852.63;5071759;28;20519;-70
2022/07/30 10:48:03;;;;;;;6.20;2.28;;;;;;;24.33;46.26;101848.13;5071002;28;20063;-71
2022/07/30 10:50:28;;;;;;;4.38;2.22;;;;;;;24.56;46.43;101841.31;5071368;28;20099;-71
2022/07/30 10:53:02;;;;;;;2.45;2.08;;;;;;;24.73;46.99;101849.03;5071389;28;20452;-70
2022/07/30 10:55:31;;;;;;;3.72;1.92;;;;;;;24.91;45.30;101846.91;5070908;28;20024;-71
2022/07/30 10:57:58;;;;;;;3.17;2.17;;;;;;;25.11;43.52;101852.69;5071431;28;20103;-71
2022/07/30 11:00:24;;;;;;;4.30;2.17;;;;;;;25.28;45.88;101849.75;5071484;28;20032;-70
2022/07/30 11:03:12;;;;;;;4.03;2.20;;;;;;;25.55;46.00;101851.44;5070628;28;20012;-71
2022/07/30 11:05:40;;;;;;;6.25;2.30;;;;;;;25.59;44.49;101844.91;5071139;28;20485;-71
2022/07/30 11:08:27;;;;;;;6.53;2.30;;;;;;;25.58;44.25;101841.41;5069695;28;20083;-71
2022/07/30 11:10:52;;;;;;;4.13;2.40;;;;;;;25.57;44.72;101838.81;5070754;28;20024;-71
2022/07/30 11:13:47;;;;;;;3.28;2.30;;;;;;;25.74;44.65;101846.50;5071782;28;20059;-71
2022/07/30 11:16:13;;;;;;;3.17;2.33;;;;;;;25.95;44.33;101843.28;5070684;28;20060;-71
2022/07/30 11:19:05;;;;;;;5.60;2.60;;;;;;;26.15;44.04;101840.00;5071266;28;20491;-71
2022/07/30 11:21:32;;;;;;;5.03;2.60;;;;;;;26.39;43.27;101830.16;5071365;28;20045;-71